createdAt,value
2022-09-16T00:00:33.963Z,13.93
2022-09-16T00:01:34.079Z,13.91
2022-09-16T00:02:36.839Z,13.91
2022-09-16T00:03:34.887Z,13.91
2022-09-16T00:04:33.899Z,13.91
2022-09-16T00:05:33.812Z,13.91
2022-09-16T00:06:33.847Z,13.93
2022-09-16T00:07:33.700Z,13.94
2022-09-16T00:08:34.066Z,13.94
2022-09-16T00:09:33.785Z,13.94
2022-09-16T00:10:33.792Z,13.94
2022-09-16T00:11:34.083Z,13.94
2022-09-16T00:12:33.792Z,13.95
2022-09-16T00:13:33.739Z,13.94
2022-09-16T00:14:34.766Z,13.95
2022-09-16T00:15:33.780Z,13.95
2022-09-16T00:16:33.666Z,13.95
2022-09-16T00:17:33.597Z,13.97
2022-09-16T00:18:33.589Z,13.95
2022-09-16T00:19:33.569Z,13.95
2022-09-16T00:20:33.593Z,13.97
2022-09-16T00:21:33.569Z,13.99
2022-09-16T00:22:33.535Z,13.97
2022-09-16T00:23:33.517Z,13.99
2022-09-16T00:24:33.468Z,13.99
2022-09-16T00:25:33.751Z,13.99
2022-09-16T00:26:33.518Z,13.99
2022-09-16T00:27:33.578Z,14.01
2022-09-16T00:28:33.527Z,13.99
2022-09-16T00:29:33.676Z,13.99
2022-09-16T00:30:33.528Z,14.01
2022-09-16T00:31:33.517Z,14.01
2022-09-16T00:32:33.596Z,13.99
2022-09-16T00:33:33.495Z,13.99
2022-09-16T00:34:33.517Z,13.99
2022-09-16T00:35:33.497Z,13.97
2022-09-16T00:36:33.523Z,13.95
2022-09-16T00:37:33.405Z,13.93
2022-09-16T00:38:33.515Z,13.93
2022-09-16T00:39:33.355Z,13.93
2022-09-16T00:40:33.402Z,13.94
2022-09-16T00:41:33.365Z,13.94
2022-09-16T00:42:33.433Z,13.93
2022-09-16T00:43:33.364Z,13.93
2022-09-16T00:44:33.395Z,13.94
2022-09-16T00:45:33.272Z,13.93
2022-09-16T00:46:33.357Z,13.93
2022-09-16T00:47:33.282Z,13.94
2022-09-16T00:48:33.233Z,13.94
2022-09-16T00:49:33.341Z,13.95
2022-09-16T00:50:33.213Z,13.94
2022-09-16T00:51:33.590Z,13.95
2022-09-16T00:52:33.285Z,13.95
2022-09-16T00:53:33.180Z,13.95
2022-09-16T00:54:33.159Z,13.97
2022-09-16T00:55:33.122Z,13.97
2022-09-16T00:56:33.128Z,13.99
2022-09-16T00:57:33.219Z,13.99
2022-09-16T00:58:33.102Z,13.99
2022-09-16T00:59:33.052Z,13.99
2022-09-16T01:00:33.051Z,14.01
2022-09-16T01:01:33.059Z,13.99
2022-09-16T01:02:33.019Z,13.99
2022-09-16T01:03:33.012Z,13.99
2022-09-16T01:04:33.009Z,13.99
2022-09-16T01:05:32.993Z,14.01
2022-09-16T01:06:33.127Z,14.01
2022-09-16T01:07:33.085Z,14.02
2022-09-16T01:08:33.087Z,14.01
2022-09-16T01:09:33.114Z,14.02
2022-09-16T01:10:32.983Z,14.02
2022-09-16T01:11:33.063Z,14.01
2022-09-16T01:12:33.026Z,14.02
2022-09-16T01:13:32.905Z,14.03
2022-09-16T01:14:32.968Z,14.01
2022-09-16T01:15:32.946Z,14.02
2022-09-16T01:16:33.072Z,14.02
2022-09-16T01:17:32.995Z,14.01
2022-09-16T01:18:32.959Z,14.02
2022-09-16T01:19:32.903Z,14.02
2022-09-16T01:20:32.954Z,14.01
2022-09-16T01:21:32.921Z,14.01
2022-09-16T01:22:32.864Z,14.03
2022-09-16T01:23:32.852Z,14.02
2022-09-16T01:24:32.821Z,14.01
2022-09-16T01:25:32.932Z,14.02
2022-09-16T01:26:32.750Z,14.02
2022-09-16T01:27:32.810Z,14.01
2022-09-16T01:28:33.051Z,14.01
2022-09-16T01:29:32.702Z,14.01
2022-09-16T01:30:32.886Z,14.01
2022-09-16T01:31:32.838Z,13.99
2022-09-16T01:32:32.801Z,14.01
2022-09-16T01:33:33.155Z,14.01
2022-09-16T01:34:32.732Z,13.99
2022-09-16T01:35:32.699Z,13.99
2022-09-16T01:36:32.550Z,14.01
2022-09-16T01:37:32.793Z,14.01
2022-09-16T01:38:33.571Z,14.01
2022-09-16T01:39:32.578Z,14.02
2022-09-16T01:40:32.598Z,14.01
2022-09-16T01:41:32.619Z,14.02
2022-09-16T01:42:32.611Z,14.01
2022-09-16T01:43:32.554Z,14.02
2022-09-16T01:44:32.536Z,14.01
2022-09-16T01:45:32.582Z,14.02
2022-09-16T01:46:32.559Z,14.01
2022-09-16T01:47:32.523Z,14.03
2022-09-16T01:48:32.497Z,14.02
2022-09-16T01:49:32.530Z,14.02
2022-09-16T01:50:36.349Z,14.02
2022-09-16T01:51:32.429Z,14.03
2022-09-16T01:52:32.415Z,14.02
2022-09-16T01:53:32.421Z,14.03
2022-09-16T01:54:32.495Z,14.03
2022-09-16T01:55:33.489Z,14.01
2022-09-16T01:56:32.384Z,13.97
2022-09-16T01:57:32.372Z,13.95
2022-09-16T01:58:32.561Z,13.97
2022-09-16T01:59:32.365Z,13.95
2022-09-16T02:00:32.242Z,13.95
2022-09-16T02:01:32.292Z,13.95
2022-09-16T02:02:32.334Z,13.94
2022-09-16T02:03:32.190Z,13.93
2022-09-16T02:04:32.222Z,13.90
2022-09-16T02:05:32.172Z,13.90
2022-09-16T02:06:32.171Z,13.87
2022-09-16T02:07:32.140Z,13.86
2022-09-16T02:08:32.172Z,13.86
2022-09-16T02:09:32.142Z,13.86
2022-09-16T02:10:32.319Z,13.86
2022-09-16T02:11:32.104Z,13.84
2022-09-16T02:12:32.089Z,13.84
2022-09-16T02:13:32.063Z,13.83
2022-09-16T02:14:32.478Z,13.81
2022-09-16T02:15:32.157Z,13.81
2022-09-16T02:16:32.108Z,13.79
2022-09-16T02:17:32.148Z,13.79
2022-09-16T02:18:32.140Z,13.76
2022-09-16T02:19:32.063Z,13.76
2022-09-16T02:20:32.170Z,13.76
2022-09-16T02:21:32.086Z,13.76
2022-09-16T02:22:32.080Z,13.73
2022-09-16T02:23:32.218Z,13.72
2022-09-16T02:24:31.914Z,13.70
2022-09-16T02:25:31.986Z,13.69
2022-09-16T02:26:31.947Z,13.69
2022-09-16T02:27:31.878Z,13.69
2022-09-16T02:28:31.935Z,13.69
2022-09-16T02:29:31.884Z,13.68
2022-09-16T02:30:31.887Z,13.66
2022-09-16T02:31:31.870Z,13.62
2022-09-16T02:32:31.872Z,13.57
2022-09-16T02:33:31.833Z,13.53
2022-09-16T02:34:31.834Z,13.51
2022-09-16T02:35:31.776Z,13.48
2022-09-16T02:36:31.783Z,13.47
2022-09-16T02:37:31.998Z,13.44
2022-09-16T02:38:31.743Z,13.45
2022-09-16T02:39:31.712Z,13.45
2022-09-16T02:40:31.848Z,13.44
2022-09-16T02:41:31.712Z,13.42
2022-09-16T02:42:31.734Z,13.40
2022-09-16T02:43:31.706Z,13.44
2022-09-16T02:44:31.650Z,13.40
2022-09-16T02:45:31.669Z,13.42
2022-09-16T02:46:31.791Z,13.42
2022-09-16T02:47:31.647Z,13.42
2022-09-16T02:48:31.613Z,13.44
2022-09-16T02:49:31.669Z,13.45
2022-09-16T02:50:31.783Z,13.45
2022-09-16T02:51:31.671Z,13.45
2022-09-16T02:52:31.769Z,13.44
2022-09-16T02:53:31.729Z,13.44
2022-09-16T02:54:31.719Z,13.44
2022-09-16T02:55:31.821Z,13.45
2022-09-16T02:56:31.583Z,13.44
2022-09-16T02:57:31.560Z,13.45
2022-09-16T02:58:31.467Z,13.45
2022-09-16T02:59:31.468Z,13.47
2022-09-16T03:00:31.975Z,13.47
2022-09-16T03:01:31.626Z,13.47
2022-09-16T03:02:31.731Z,13.47
2022-09-16T03:03:31.536Z,13.45
2022-09-16T03:04:31.638Z,13.45
2022-09-16T03:05:31.468Z,13.45
2022-09-16T03:06:31.787Z,13.47
2022-09-16T03:07:31.434Z,13.48
2022-09-16T03:08:31.524Z,13.47
2022-09-16T03:09:31.398Z,13.48
2022-09-16T03:10:31.640Z,13.50
2022-09-16T03:11:31.684Z,13.51
2022-09-16T03:12:31.423Z,13.51
2022-09-16T03:13:31.640Z,13.53
2022-09-16T03:14:31.362Z,13.53
2022-09-16T03:15:31.351Z,13.54
2022-09-16T03:16:31.443Z,13.54
2022-09-16T03:17:31.414Z,13.55
2022-09-16T03:18:31.425Z,13.57
2022-09-16T03:19:31.418Z,13.57
2022-09-16T03:20:31.309Z,13.55
2022-09-16T03:21:31.300Z,13.57
2022-09-16T03:22:31.340Z,13.57
2022-09-16T03:23:31.270Z,13.58
2022-09-16T03:24:31.200Z,13.58
2022-09-16T03:25:31.190Z,13.58
2022-09-16T03:26:31.140Z,13.58
2022-09-16T03:27:31.142Z,13.58
2022-09-16T03:28:31.122Z,13.60
2022-09-16T03:29:31.089Z,13.58
2022-09-16T03:30:31.068Z,13.60
2022-09-16T03:31:31.586Z,13.60
2022-09-16T03:32:31.128Z,13.60
2022-09-16T03:33:31.260Z,13.60
2022-09-16T03:34:31.170Z,13.60
2022-09-16T03:35:31.167Z,13.62
2022-09-16T03:36:31.328Z,13.62
2022-09-16T03:37:31.205Z,13.62
2022-09-16T03:38:31.087Z,13.63
2022-09-16T03:39:31.106Z,13.63
2022-09-16T03:40:31.297Z,13.63
2022-09-16T03:41:31.073Z,13.65
2022-09-16T03:42:31.006Z,13.65
2022-09-16T03:43:31.102Z,13.65
2022-09-16T03:44:30.957Z,13.66
2022-09-16T03:45:30.964Z,13.65
2022-09-16T03:46:31.058Z,13.65
2022-09-16T03:47:30.987Z,13.66
2022-09-16T03:48:30.874Z,13.65
2022-09-16T03:49:30.841Z,13.65
2022-09-16T03:50:30.835Z,13.66
2022-09-16T03:51:30.818Z,13.65
2022-09-16T03:52:30.831Z,13.66
2022-09-16T03:53:30.804Z,13.66
2022-09-16T03:54:30.812Z,13.68
2022-09-16T03:55:30.742Z,13.68
2022-09-16T03:56:31.173Z,13.69
2022-09-16T03:57:30.882Z,13.69
2022-09-16T03:58:30.958Z,13.68
2022-09-16T03:59:30.877Z,13.69
2022-09-16T04:00:30.850Z,13.69
2022-09-16T04:01:31.745Z,13.69
2022-09-16T04:02:30.881Z,13.69
2022-09-16T04:03:33.323Z,13.68
2022-09-16T04:04:30.852Z,13.69
2022-09-16T04:05:30.927Z,13.68
2022-09-16T04:06:30.675Z,13.68
2022-09-16T04:07:30.699Z,13.65
2022-09-16T04:08:30.695Z,13.65
2022-09-16T04:09:30.649Z,13.65
2022-09-16T04:10:30.740Z,13.66
2022-09-16T04:11:30.728Z,13.63
2022-09-16T04:12:30.997Z,13.65
2022-09-16T04:13:30.516Z,13.63
2022-09-16T04:14:30.489Z,13.63
2022-09-16T04:15:30.487Z,13.63
2022-09-16T04:16:30.466Z,13.62
2022-09-16T04:17:30.455Z,13.63
2022-09-16T04:18:30.495Z,13.65
2022-09-16T04:19:30.415Z,13.65
2022-09-16T04:20:30.445Z,13.65
2022-09-16T04:21:30.397Z,13.65
2022-09-16T04:22:30.396Z,13.65
2022-09-16T04:23:30.384Z,13.63
2022-09-16T04:24:30.389Z,13.65
2022-09-16T04:25:30.373Z,13.63
2022-09-16T04:26:30.338Z,13.65
2022-09-16T04:27:30.360Z,13.62
2022-09-16T04:28:30.356Z,13.62
2022-09-16T04:29:30.293Z,13.62
2022-09-16T04:30:30.305Z,13.62
2022-09-16T04:31:30.283Z,13.62
2022-09-16T04:32:30.272Z,13.62
2022-09-16T04:33:30.265Z,13.63
2022-09-16T04:34:30.244Z,13.63
2022-09-16T04:35:30.253Z,13.63
2022-09-16T04:36:30.231Z,13.60
2022-09-16T04:37:30.199Z,13.62
2022-09-16T04:38:30.242Z,13.62
2022-09-16T04:39:30.173Z,13.62
2022-09-16T04:40:30.216Z,13.60
2022-09-16T04:41:30.172Z,13.60
2022-09-16T04:42:30.129Z,13.62
2022-09-16T04:43:30.138Z,13.62
2022-09-16T04:44:30.143Z,13.62
2022-09-16T04:45:30.091Z,13.60
2022-09-16T04:46:30.239Z,13.60
2022-09-16T04:47:30.141Z,13.62
2022-09-16T04:48:30.121Z,13.62
2022-09-16T04:49:30.070Z,13.62
2022-09-16T04:50:31.357Z,13.62
2022-09-16T04:51:30.028Z,13.63
2022-09-16T04:52:30.033Z,13.62
2022-09-16T04:53:30.005Z,13.62
2022-09-16T04:54:30.029Z,13.62
2022-09-16T04:55:29.992Z,13.62
2022-09-16T04:56:29.947Z,13.62
2022-09-16T04:57:29.959Z,13.60
2022-09-16T04:58:29.926Z,13.58
2022-09-16T04:59:29.917Z,13.62
2022-09-16T05:00:29.915Z,13.62
2022-09-16T05:01:29.917Z,13.60
2022-09-16T05:02:29.905Z,13.58
2022-09-16T05:03:29.895Z,13.58
2022-09-16T05:04:29.876Z,13.58
2022-09-16T05:05:29.849Z,13.58
2022-09-16T05:06:29.832Z,13.57
2022-09-16T05:07:29.896Z,13.57
2022-09-16T05:08:29.802Z,13.57
2022-09-16T05:09:29.802Z,13.57
2022-09-16T05:10:29.759Z,13.58
2022-09-16T05:11:29.782Z,13.55
2022-09-16T05:12:29.733Z,13.57
2022-09-16T05:13:29.781Z,13.58
2022-09-16T05:14:29.710Z,13.58
2022-09-16T05:15:29.717Z,13.58
2022-09-16T05:16:29.771Z,13.58
2022-09-16T05:17:49.995Z,13.60
2022-09-16T05:18:30.650Z,13.57
2022-09-16T05:19:29.649Z,13.57
2022-09-16T05:20:29.644Z,13.57
2022-09-16T05:21:29.631Z,13.57
2022-09-16T05:22:29.599Z,13.57
2022-09-16T05:23:29.612Z,13.58
2022-09-16T05:24:29.608Z,13.57
2022-09-16T05:25:29.581Z,13.58
2022-09-16T05:26:29.547Z,13.55
2022-09-16T05:27:29.627Z,13.57
2022-09-16T05:28:30.034Z,13.55
2022-09-16T05:29:29.597Z,13.55
2022-09-16T05:30:29.506Z,13.55
2022-09-16T05:31:29.554Z,13.55
2022-09-16T05:32:29.517Z,13.55
2022-09-16T05:33:29.507Z,13.54
2022-09-16T05:34:29.438Z,13.54
2022-09-16T05:35:29.479Z,13.54
2022-09-16T05:36:29.416Z,13.57
2022-09-16T05:37:29.487Z,13.55
2022-09-16T05:38:29.437Z,13.55
2022-09-16T05:39:29.649Z,13.57
2022-09-16T05:40:29.437Z,13.55
2022-09-16T05:41:29.415Z,13.55
2022-09-16T05:42:29.358Z,13.55
2022-09-16T05:43:29.345Z,13.55
2022-09-16T05:44:29.347Z,13.55
2022-09-16T05:45:32.421Z,13.57
2022-09-16T05:46:29.385Z,13.55
2022-09-16T05:47:29.365Z,13.58
2022-09-16T05:48:29.313Z,13.57
2022-09-16T05:49:29.325Z,13.57
2022-09-16T05:50:29.254Z,13.57
2022-09-16T05:51:30.183Z,13.57
2022-09-16T05:52:29.226Z,13.58
2022-09-16T05:53:29.351Z,13.57
2022-09-16T05:54:29.221Z,13.55
2022-09-16T05:55:29.214Z,13.57
2022-09-16T05:56:29.214Z,13.58
2022-09-16T05:57:30.169Z,13.57
2022-09-16T05:58:29.172Z,13.58
2022-09-16T05:59:29.301Z,13.57
2022-09-16T06:00:29.495Z,13.58
2022-09-16T06:01:29.492Z,13.58
2022-09-16T06:02:33.747Z,13.58
2022-09-16T06:03:30.483Z,13.58
2022-09-16T06:04:29.514Z,13.58
2022-09-16T06:05:29.186Z,13.60
2022-09-16T06:06:29.029Z,13.58
2022-09-16T06:07:29.060Z,13.60
2022-09-16T06:08:29.040Z,13.57
2022-09-16T06:09:29.098Z,13.55
2022-09-16T06:10:29.027Z,13.54
2022-09-16T06:11:28.976Z,13.53
2022-09-16T06:12:29.008Z,13.53
2022-09-16T06:13:29.004Z,13.53
2022-09-16T06:14:29.105Z,13.51
2022-09-16T06:15:29.043Z,13.51
2022-09-16T06:16:28.907Z,13.51
2022-09-16T06:17:28.907Z,13.51
2022-09-16T06:18:28.926Z,13.53
2022-09-16T06:19:28.877Z,13.53
2022-09-16T06:20:28.867Z,13.54
2022-09-16T06:21:28.857Z,13.53
2022-09-16T06:22:28.855Z,13.54
2022-09-16T06:23:28.825Z,13.54
2022-09-16T06:24:28.815Z,13.55
2022-09-16T06:25:28.828Z,13.57
2022-09-16T06:26:28.775Z,13.58
2022-09-16T06:27:28.874Z,13.57
2022-09-16T06:28:28.762Z,13.58
2022-09-16T06:29:28.769Z,13.55
2022-09-16T06:30:31.096Z,13.57
2022-09-16T06:31:28.721Z,13.58
2022-09-16T06:32:28.733Z,13.57
2022-09-16T06:33:28.694Z,13.58
2022-09-16T06:34:28.682Z,13.60
2022-09-16T06:35:28.661Z,13.60
2022-09-16T06:36:28.673Z,13.57
2022-09-16T06:37:28.672Z,13.57
2022-09-16T06:38:28.662Z,13.55
2022-09-16T06:39:28.612Z,13.57
2022-09-16T06:40:28.893Z,13.57
2022-09-16T06:41:28.619Z,13.55
2022-09-16T06:42:28.580Z,13.55
2022-09-16T06:43:28.620Z,13.57
2022-09-16T06:44:28.567Z,13.55
2022-09-16T06:45:28.558Z,13.57
2022-09-16T06:46:28.548Z,13.57
2022-09-16T06:47:28.519Z,13.55
2022-09-16T06:48:28.500Z,13.55
2022-09-16T06:49:28.477Z,13.57
2022-09-16T06:50:28.506Z,13.57
2022-09-16T06:51:28.467Z,13.58
2022-09-16T06:52:28.475Z,13.58
2022-09-16T06:53:28.429Z,13.60
2022-09-16T06:54:28.452Z,13.60
2022-09-16T06:55:28.428Z,13.65
2022-09-16T06:56:28.398Z,13.63
2022-09-16T06:57:28.407Z,13.65
2022-09-16T06:58:28.359Z,13.65
2022-09-16T06:59:28.388Z,13.65
2022-09-16T07:00:28.373Z,13.66
2022-09-16T07:01:28.517Z,13.65
2022-09-16T07:02:28.411Z,13.63
2022-09-16T07:03:28.326Z,13.63
2022-09-16T07:04:28.348Z,13.62
2022-09-16T07:05:28.294Z,13.65
2022-09-16T07:06:45.160Z,13.65
2022-09-16T07:07:29.251Z,13.66
2022-09-16T07:08:28.278Z,13.68
2022-09-16T07:09:28.262Z,13.69
2022-09-16T07:10:28.483Z,13.70
2022-09-16T07:11:28.192Z,13.70
2022-09-16T07:12:28.190Z,13.72
2022-09-16T07:13:28.181Z,13.72
2022-09-16T07:14:28.152Z,13.73
2022-09-16T07:15:28.152Z,13.75
2022-09-16T07:16:28.224Z,13.76
2022-09-16T07:17:28.130Z,13.76
2022-09-16T07:18:28.210Z,13.79
2022-09-16T07:19:28.101Z,13.81
2022-09-16T07:20:28.160Z,13.78
2022-09-16T07:21:28.090Z,13.76
2022-09-16T07:22:28.120Z,13.79
2022-09-16T07:23:28.059Z,13.79
2022-09-16T07:24:28.058Z,13.79
2022-09-16T07:25:32.450Z,13.81
2022-09-16T07:26:28.998Z,13.83
2022-09-16T07:27:28.049Z,13.84
2022-09-16T07:28:28.052Z,13.84
2022-09-16T07:29:27.970Z,13.86
2022-09-16T07:30:28.149Z,13.87
2022-09-16T07:31:27.956Z,13.88
2022-09-16T07:32:27.966Z,13.88
2022-09-16T07:33:27.929Z,13.87
2022-09-16T07:34:27.896Z,13.90
2022-09-16T07:35:27.927Z,13.90
2022-09-16T07:36:27.885Z,13.91
2022-09-16T07:37:27.908Z,13.91
2022-09-16T07:38:27.896Z,13.93
2022-09-16T07:39:27.834Z,13.90
2022-09-16T07:40:29.772Z,13.91
2022-09-16T07:41:27.815Z,13.91
2022-09-16T07:42:27.805Z,13.90
2022-09-16T07:43:27.853Z,13.93
2022-09-16T07:44:27.764Z,13.93
2022-09-16T07:45:27.880Z,13.95
2022-09-16T07:46:27.794Z,13.95
2022-09-16T07:47:46.094Z,13.99
2022-09-16T07:48:31.235Z,14.01
2022-09-16T07:49:28.798Z,14.01
2022-09-16T07:50:31.485Z,14.01
2022-09-16T07:51:29.185Z,14.02
2022-09-16T07:52:28.120Z,14.05
2022-09-16T07:53:29.538Z,14.08
2022-09-16T07:54:32.355Z,14.08
2022-09-16T07:55:28.464Z,14.09
2022-09-16T07:56:32.454Z,14.12
2022-09-16T07:57:29.583Z,14.15
2022-09-16T07:58:37.802Z,14.13
2022-09-16T07:59:27.625Z,14.15
2022-09-16T08:00:27.569Z,14.16
2022-09-16T08:01:27.634Z,14.12
2022-09-16T08:02:27.735Z,14.13
2022-09-16T08:03:28.501Z,14.15
2022-09-16T08:04:27.511Z,14.15
2022-09-16T08:05:27.563Z,14.12
2022-09-16T08:06:27.471Z,14.12
2022-09-16T08:07:27.491Z,14.15
2022-09-16T08:08:27.507Z,14.13
2022-09-16T08:09:38.490Z,14.16
2022-09-16T08:10:32.239Z,14.15
2022-09-16T08:11:27.410Z,14.15
2022-09-16T08:12:28.060Z,14.15
2022-09-16T08:13:27.477Z,14.15
2022-09-16T08:14:27.378Z,14.16
2022-09-16T08:15:27.386Z,14.15
2022-09-16T08:16:27.400Z,14.19
2022-09-16T08:17:30.672Z,14.20
2022-09-16T08:18:28.347Z,14.19
2022-09-16T08:19:27.367Z,14.20
2022-09-16T08:20:27.330Z,14.20
2022-09-16T08:21:27.348Z,14.20
2022-09-16T08:22:27.389Z,14.21
2022-09-16T08:23:28.014Z,14.20
2022-09-16T08:24:27.256Z,14.23
2022-09-16T08:25:27.257Z,14.23
2022-09-16T08:26:27.228Z,14.24
2022-09-16T08:27:27.207Z,14.24
2022-09-16T08:28:35.783Z,14.24
2022-09-16T08:29:28.205Z,14.26
2022-09-16T08:30:27.186Z,14.28
2022-09-16T08:31:27.266Z,14.28
2022-09-16T08:32:27.134Z,14.30
2022-09-16T08:33:27.231Z,14.28
2022-09-16T08:34:27.115Z,14.30
2022-09-16T08:35:27.152Z,14.28
2022-09-16T08:36:27.158Z,14.31
2022-09-16T08:37:27.072Z,14.33
2022-09-16T08:38:36.944Z,14.33
2022-09-16T08:39:27.576Z,14.34
2022-09-16T08:40:27.055Z,14.38
2022-09-16T08:41:27.056Z,14.41
2022-09-16T08:42:38.514Z,14.39
2022-09-16T08:43:30.061Z,14.38
2022-09-16T08:44:32.433Z,14.41
2022-09-16T08:45:27.482Z,14.41
2022-09-16T08:46:37.582Z,14.41
2022-09-16T08:47:26.972Z,14.42
2022-09-16T08:48:28.778Z,14.45
2022-09-16T08:50:28.396Z,14.46
2022-09-16T08:51:27.945Z,14.48
2022-09-16T08:52:23.438Z,14.49
2022-09-16T08:53:35.739Z,14.49
2022-09-16T08:54:35.508Z,14.49
2022-09-16T08:56:47.311Z,14.52
2022-09-16T08:59:12.040Z,14.51
2022-09-16T09:00:09.060Z,14.52
2022-09-16T09:01:19.730Z,14.56
2022-09-16T09:02:09.865Z,14.57
2022-09-16T09:03:14.499Z,14.57
2022-09-16T09:04:23.398Z,14.59
2022-09-16T09:06:25.201Z,14.61
2022-09-16T09:07:27.409Z,14.63
2022-09-16T09:10:00.968Z,14.63
2022-09-16T09:12:07.752Z,14.67
2022-09-16T09:13:12.207Z,14.70
2022-09-16T09:14:38.762Z,14.71
2022-09-16T09:15:20.812Z,14.71
2022-09-16T09:16:08.928Z,14.69
2022-09-16T09:18:17.697Z,14.70
2022-09-16T09:19:41.101Z,14.69
2022-09-16T09:21:38.408Z,14.71
2022-09-16T09:24:42.846Z,14.70
2022-09-16T09:25:42.797Z,14.71
2022-09-16T09:26:42.787Z,14.74
2022-09-16T09:27:42.811Z,14.77
2022-09-16T09:28:42.774Z,14.79
2022-09-16T09:30:57.331Z,14.80
2022-09-16T09:33:44.910Z,14.86
2022-09-16T09:34:26.649Z,14.86
2022-09-16T09:35:30.865Z,14.90
2022-09-16T09:36:30.569Z,14.90
2022-09-16T09:37:25.293Z,14.94
2022-09-16T09:38:34.731Z,14.95
2022-09-16T09:39:25.165Z,14.98
2022-09-16T09:40:25.217Z,15.01
2022-09-16T09:41:25.177Z,15.00
2022-09-16T09:42:25.183Z,15.00
2022-09-16T09:43:25.303Z,15.02
2022-09-16T09:44:25.143Z,15.02
2022-09-16T09:45:25.080Z,15.04
2022-09-16T09:46:25.097Z,15.05
2022-09-16T09:47:25.086Z,15.07
2022-09-16T09:48:25.083Z,15.08
2022-09-16T09:49:25.034Z,15.08
2022-09-16T09:50:25.025Z,15.10
2022-09-16T09:51:37.859Z,15.13
2022-09-16T09:52:25.041Z,15.10
2022-09-16T09:53:25.018Z,15.13
2022-09-16T09:54:24.989Z,15.10
2022-09-16T09:55:24.958Z,15.08
2022-09-16T09:56:24.938Z,15.10
2022-09-16T09:57:24.938Z,15.10
2022-09-16T09:58:24.916Z,15.05
2022-09-16T09:59:24.910Z,15.05
2022-09-16T10:00:24.890Z,15.04
2022-09-16T10:01:24.991Z,15.07
2022-09-16T10:02:24.908Z,15.10
2022-09-16T10:03:24.866Z,15.12
2022-09-16T10:04:24.837Z,15.15
2022-09-16T10:05:24.818Z,15.16
2022-09-16T10:06:24.816Z,15.16
2022-09-16T10:07:24.846Z,15.15
2022-09-16T10:08:24.834Z,15.16
2022-09-16T10:09:24.807Z,15.15
2022-09-16T10:10:24.784Z,15.15
2022-09-16T10:11:24.745Z,15.12
2022-09-16T10:12:24.765Z,15.10
2022-09-16T10:13:35.005Z,15.10
2022-09-16T10:14:24.727Z,15.10
2022-09-16T10:15:24.696Z,15.10
2022-09-16T10:16:24.717Z,15.08
2022-09-16T10:17:24.666Z,15.08
2022-09-16T10:18:24.714Z,15.07
2022-09-16T10:19:24.640Z,15.05
2022-09-16T10:20:24.666Z,15.04
2022-09-16T10:21:24.632Z,15.05
2022-09-16T10:22:24.666Z,15.05
2022-09-16T10:23:29.633Z,15.04
2022-09-16T10:24:25.584Z,15.05
2022-09-16T10:25:24.593Z,15.02
2022-09-16T10:26:24.594Z,15.02
2022-09-16T10:27:24.633Z,15.01
2022-09-16T10:28:24.532Z,15.01
2022-09-16T10:29:24.552Z,15.01
2022-09-16T10:30:24.606Z,15.01
2022-09-16T10:31:24.577Z,15.00
2022-09-16T10:32:34.044Z,15.01
2022-09-16T10:33:24.482Z,15.02
2022-09-16T10:34:24.470Z,15.01
2022-09-16T10:35:24.523Z,15.02
2022-09-16T10:36:24.462Z,15.01
2022-09-16T10:37:35.871Z,15.00
2022-09-16T10:38:24.438Z,14.97
2022-09-16T10:39:24.388Z,14.97
2022-09-16T10:40:24.431Z,14.97
2022-09-16T10:41:24.365Z,14.95
2022-09-16T10:42:24.348Z,14.90
2022-09-16T10:43:24.377Z,14.93
2022-09-16T10:44:24.337Z,14.90
2022-09-16T10:45:24.327Z,14.93
2022-09-16T10:46:24.388Z,14.93
2022-09-16T10:47:24.296Z,14.93
2022-09-16T10:48:38.607Z,14.90
2022-09-16T10:49:24.298Z,14.94
2022-09-16T10:50:24.288Z,15.00
2022-09-16T10:51:24.241Z,15.00
2022-09-16T10:52:24.267Z,15.04
2022-09-16T10:53:24.471Z,15.07
2022-09-16T10:54:24.196Z,15.08
2022-09-16T10:55:24.203Z,15.10
2022-09-16T10:56:24.185Z,15.13
2022-09-16T10:57:24.168Z,15.16
2022-09-16T10:58:24.158Z,15.16
2022-09-16T10:59:24.137Z,15.18
2022-09-16T11:00:24.157Z,15.20
2022-09-16T11:01:25.023Z,15.20
2022-09-16T11:02:24.117Z,15.22
2022-09-16T11:03:24.084Z,15.22
2022-09-16T11:04:24.075Z,15.22
2022-09-16T11:05:26.060Z,15.19
2022-09-16T11:06:24.066Z,15.20
2022-09-16T11:07:24.073Z,15.20
2022-09-16T11:08:24.044Z,15.20
2022-09-16T11:09:27.972Z,15.20
2022-09-16T11:10:24.010Z,15.20
2022-09-16T11:11:24.070Z,15.20
2022-09-16T11:12:23.962Z,15.18
2022-09-16T11:13:23.960Z,15.13
2022-09-16T11:14:23.941Z,15.12
2022-09-16T11:15:23.950Z,15.05
2022-09-16T11:16:24.260Z,15.04
2022-09-16T11:17:23.948Z,15.00
2022-09-16T11:18:23.929Z,14.98
2022-09-16T11:19:23.871Z,14.95
2022-09-16T11:20:23.899Z,14.95
2022-09-16T11:21:23.869Z,14.93
2022-09-16T11:22:23.858Z,14.93
2022-09-16T11:23:23.821Z,14.89
2022-09-16T11:24:23.818Z,14.87
2022-09-16T11:25:23.797Z,14.86
2022-09-16T11:26:23.797Z,14.86
2022-09-16T11:27:23.791Z,14.83
2022-09-16T11:28:23.756Z,14.82
2022-09-16T11:29:27.455Z,14.82
2022-09-16T11:30:23.747Z,14.80
2022-09-16T11:31:23.776Z,14.79
2022-09-16T11:32:24.234Z,14.74
2022-09-16T11:33:23.744Z,14.70
2022-09-16T11:34:23.687Z,14.69
2022-09-16T11:35:23.667Z,14.67
2022-09-16T11:36:23.696Z,14.67
2022-09-16T11:37:23.653Z,14.66
2022-09-16T11:38:23.632Z,14.66
2022-09-16T11:39:23.616Z,14.63
2022-09-16T11:40:23.658Z,14.63
2022-09-16T11:41:23.611Z,14.61
2022-09-16T11:42:23.596Z,14.60
2022-09-16T11:43:23.581Z,14.60
2022-09-16T11:44:23.573Z,14.61
2022-09-16T11:45:23.550Z,14.61
2022-09-16T11:46:23.656Z,14.59
2022-09-16T11:47:23.526Z,14.59
2022-09-16T11:48:23.517Z,14.59
2022-09-16T11:49:23.482Z,14.60
2022-09-16T11:50:23.501Z,14.60
2022-09-16T11:51:23.473Z,14.63
2022-09-16T11:52:23.515Z,14.63
2022-09-16T11:53:26.700Z,14.63
2022-09-16T11:54:24.465Z,14.61
2022-09-16T11:55:23.418Z,14.63
2022-09-16T11:56:23.399Z,14.61
2022-09-16T11:57:23.431Z,14.61
2022-09-16T11:58:23.369Z,14.61
2022-09-16T11:59:23.378Z,14.63
2022-09-16T12:00:23.398Z,14.64
2022-09-16T12:01:23.360Z,14.66
2022-09-16T12:02:23.405Z,14.69
2022-09-16T12:03:23.344Z,14.71
2022-09-16T12:04:23.287Z,14.74
2022-09-16T12:05:23.303Z,14.75
2022-09-16T12:06:23.267Z,14.80
2022-09-16T12:07:23.305Z,14.82
2022-09-16T12:08:23.266Z,14.83
2022-09-16T12:09:23.226Z,14.87
2022-09-16T12:10:23.227Z,14.90
2022-09-16T12:11:23.224Z,14.93
2022-09-16T12:12:23.215Z,14.94
2022-09-16T12:13:23.205Z,14.95
2022-09-16T12:14:23.166Z,14.97
2022-09-16T12:15:23.237Z,14.98
2022-09-16T12:16:23.165Z,15.00
2022-09-16T12:17:23.163Z,15.00
2022-09-16T12:18:23.175Z,15.02
2022-09-16T12:19:23.104Z,15.02
2022-09-16T12:20:23.109Z,15.01
2022-09-16T12:21:23.072Z,15.05
2022-09-16T12:22:23.063Z,15.15
2022-09-16T12:23:32.870Z,15.19
2022-09-16T12:24:35.363Z,15.22
2022-09-16T12:25:23.546Z,15.25
2022-09-16T12:26:23.166Z,15.27
2022-09-16T12:27:23.733Z,15.27
2022-09-16T12:28:24.755Z,15.31
2022-09-16T12:29:23.294Z,15.31
2022-09-16T12:30:23.177Z,15.33
2022-09-16T12:31:24.255Z,15.33
2022-09-16T12:32:23.113Z,15.33
2022-09-16T12:33:23.274Z,15.37
2022-09-16T12:34:27.364Z,15.37
2022-09-16T12:35:23.272Z,15.41
2022-09-16T12:36:23.862Z,15.44
2022-09-16T12:37:23.430Z,15.44
2022-09-16T12:38:23.041Z,15.44
2022-09-16T12:39:23.171Z,15.43
2022-09-16T12:40:22.917Z,15.43
2022-09-16T12:41:22.821Z,15.44
2022-09-16T12:42:22.811Z,15.44
2022-09-16T12:43:22.830Z,15.41
2022-09-16T12:44:33.907Z,15.40
2022-09-16T12:45:23.790Z,15.49
2022-09-16T12:46:22.856Z,15.59
2022-09-16T12:47:22.759Z,15.65
2022-09-16T12:48:22.751Z,15.78
2022-09-16T12:49:22.741Z,15.92
2022-09-16T12:50:22.764Z,16.06
2022-09-16T12:51:22.729Z,16.18
2022-09-16T12:52:22.710Z,16.32
2022-09-16T12:53:22.697Z,16.44
2022-09-16T12:54:22.774Z,16.55
2022-09-16T12:55:22.658Z,16.63
2022-09-16T12:56:22.646Z,16.72
2022-09-16T12:57:22.666Z,16.82
2022-09-16T12:58:22.607Z,16.91
2022-09-16T12:59:22.597Z,17.00
2022-09-16T13:00:22.587Z,17.10
2022-09-16T13:01:22.682Z,17.18
2022-09-16T13:02:22.737Z,17.22
2022-09-16T13:03:22.567Z,17.32
2022-09-16T13:04:22.643Z,17.39
2022-09-16T13:05:22.534Z,17.46
2022-09-16T13:06:22.555Z,17.54
2022-09-16T13:07:22.537Z,17.63